Time;durP1;ratioP1;P1;durP2;ratioP2;P2;SDS_P1;SDS_P2;PMS_P1;PMS_P2;Temp;Humidity;BMP_temperature;BMP_pressure;BME280_temperature;BME280_humidity;BME280_pressure;Samples;Min_cycle;Max_cycle;Signal;HPM_P1;HPM_P2
2021/12/09 00:01:21;;;;;;;2.10;2.10;;;16.40;68.00;;;;;;5025336;28;43940;-69
2021/12/09 00:03:50;;;;;;;2.30;2.30;;;16.40;68.00;;;;;;5022788;28;43717;-69
2021/12/09 00:06:22;;;;;;;2.27;2.27;;;16.40;68.80;;;;;;5046175;28;43913;-70
2021/12/09 00:08:50;;;;;;;2.43;2.33;;;16.40;68.10;;;;;;5027910;28;44815;-70
2021/12/09 00:11:18;;;;;;;2.50;2.40;;;16.40;68.30;;;;;;5028449;28;44080;-69
2021/12/09 00:13:48;;;;;;;2.57;2.47;;;16.50;68.10;;;;;;5046687;28;43753;-69
2021/12/09 00:16:15;;;;;;;2.13;2.13;;;16.60;67.80;;;;;;5046456;28;44075;-70
2021/12/09 00:18:44;;;;;;;2.37;2.30;;;16.80;67.30;;;;;;5046149;28;44053;-70
2021/12/09 00:21:12;;;;;;;2.40;2.30;;;16.90;66.90;;;;;;5046378;28;44008;-69
2021/12/09 00:23:40;;;;;;;2.70;2.60;;;16.90;66.60;;;;;;5046419;28;44047;-69
2021/12/09 00:26:07;;;;;;;2.50;2.40;;;16.90;66.60;;;;;;5046219;28;45241;-70
2021/12/09 00:28:36;;;;;;;2.80;2.70;;;16.80;66.70;;;;;;5046206;28;44105;-69
2021/12/09 00:31:06;;;;;;;2.50;2.40;;;16.80;67.00;;;;;;5047868;28;43964;-69
2021/12/09 00:33:40;;;;;;;2.30;2.20;;;16.70;67.10;;;;;;5032123;28;43964;-70
2021/12/09 00:36:08;;;;;;;2.20;2.20;;;16.70;67.30;;;;;;5049777;28;44966;-70
2021/12/09 00:38:37;;;;;;;2.17;2.17;;;16.60;67.50;;;;;;5049498;28;44113;-69
2021/12/09 00:41:08;;;;;;;2.80;2.70;;;16.60;67.60;;;;;;5049940;28;44065;-71
2021/12/09 00:43:36;;;;;;;2.33;2.23;;;16.50;67.60;;;;;;5049858;28;44048;-69
2021/12/09 00:46:04;;;;;;;2.33;2.33;;;16.50;67.80;;;;;;5049696;28;44045;-70
2021/12/09 00:48:33;;;;;;;2.63;2.53;;;16.50;67.90;;;;;;5049611;28;44059;-69
2021/12/09 00:51:02;;;;;;;2.60;2.50;;;16.50;68.10;;;;;;5049809;28;43948;-69
2021/12/09 00:53:30;;;;;;;2.30;2.30;;;16.50;68.00;;;;;;5049854;28;43577;-69
2021/12/09 00:55:58;;;;;;;2.10;2.10;;;16.60;67.70;;;;;;5049197;28;44059;-70
2021/12/09 00:58:26;;;;;;;2.27;2.27;;;16.60;67.30;;;;;;5031429;28;44677;-69
2021/12/09 01:00:55;;;;;;;2.40;2.30;;;16.60;67.20;;;;;;5049372;28;43944;-69
2021/12/09 01:03:23;;;;;;;2.30;2.30;;;16.70;67.40;;;;;;5031475;28;44257;-69
2021/12/09 01:05:53;;;;;;;2.23;2.13;;;16.60;67.50;;;;;;5030408;28;45978;-69
2021/12/09 01:08:39;;;;;;;2.13;2.13;;;16.60;67.60;;;;;;5049398;28;43908;-70
2021/12/09 01:11:08;;;;;;;2.27;2.27;;;16.50;67.70;;;;;;5042781;28;43956;-70
2021/12/09 01:13:36;;;;;;;2.00;2.00;;;16.50;67.90;;;;;;5043017;28;43460;-69
2021/12/09 01:16:04;;;;;;;2.60;2.50;;;16.40;67.80;;;;;;5042830;28;43698;-69
2021/12/09 01:18:33;;;;;;;2.23;2.23;;;16.40;67.90;;;;;;5011677;28;45057;-70
2021/12/09 01:21:03;;;;;;;2.20;2.20;;;16.40;68.00;;;;;;5031298;28;43774;-70
2021/12/09 01:23:31;;;;;;;2.33;2.23;;;16.40;68.10;;;;;;5049358;28;43893;-70
2021/12/09 01:26:02;;;;;;;2.10;2.10;;;16.40;68.10;;;;;;5030635;28;45441;-70
2021/12/09 01:28:34;;;;;;;2.10;2.10;;;16.40;68.20;;;;;;5049149;28;43958;-69
2021/12/09 01:31:05;;;;;;;2.60;2.40;;;16.40;68.30;;;;;;5049341;28;43322;-70
2021/12/09 01:33:34;;;;;;;2.30;2.20;;;16.50;68.20;;;;;;5049449;28;43908;-70
2021/12/09 01:36:04;;;;;;;2.20;2.10;;;16.60;67.90;;;;;;5048894;28;43966;-70
2021/12/09 01:38:33;;;;;;;2.07;2.00;;;16.70;67.40;;;;;;5048894;28;43984;-69
2021/12/09 01:41:02;;;;;;;2.40;2.30;;;16.80;66.90;;;;;;5049011;28;44060;-69
2021/12/09 01:43:30;;;;;;;2.10;2.10;;;16.90;66.70;;;;;;5047817;28;43955;-70
2021/12/09 01:46:04;;;;;;;2.20;2.20;;;16.80;66.60;;;;;;5048474;28;45639;-70
2021/12/09 01:48:32;;;;;;;2.33;2.23;;;16.80;66.90;;;;;;5048679;28;44033;-71
2021/12/09 01:51:02;;;;;;;2.30;2.20;;;16.70;67.00;;;;;;5048722;28;43960;-70
2021/12/09 01:53:30;;;;;;;1.90;1.90;;;16.60;67.10;;;;;;5048745;28;44202;-70
2021/12/09 01:55:58;;;;;;;2.20;2.10;;;16.60;67.40;;;;;;5048514;28;43592;-69
2021/12/09 01:58:26;;;;;;;2.10;2.00;;;16.60;67.60;;;;;;5030283;28;45004;-69
2021/12/09 02:00:54;;;;;;;2.33;2.23;;;16.50;67.60;;;;;;5048438;28;43377;-69
2021/12/09 02:03:22;;;;;;;2.17;2.10;;;16.50;67.70;;;;;;5048870;28;43376;-70
2021/12/09 02:05:50;;;;;;;2.20;2.20;;;16.50;67.90;;;;;;5047957;28;44122;-70
2021/12/09 02:08:20;;;;;;;2.07;2.07;;;16.50;67.90;;;;;;5048071;28;43968;-70
2021/12/09 02:10:48;;;;;;;2.20;2.20;;;16.40;68.00;;;;;;5048199;28;43812;-70
2021/12/09 02:13:16;;;;;;;2.43;2.33;;;16.50;68.00;;;;;;5048608;28;43997;-69
2021/12/09 02:15:44;;;;;;;2.20;2.10;;;16.60;67.70;;;;;;5047695;28;43568;-69
2021/12/09 02:18:13;;;;;;;1.83;1.83;;;16.60;67.30;;;;;;5047867;28;44043;-70
2021/12/09 02:20:42;;;;;;;2.23;2.20;;;16.60;67.20;;;;;;5048482;28;44389;-69
2021/12/09 02:23:12;;;;;;;2.07;2.00;;;16.60;67.40;;;;;;5048334;28;43981;-70
2021/12/09 02:25:44;;;;;;;2.00;2.00;;;16.60;67.50;;;;;;5047677;28;43878;-70
2021/12/09 02:28:12;;;;;;;2.20;2.10;;;16.50;67.50;;;;;;5048134;28;43845;-70
2021/12/09 02:30:42;;;;;;;2.13;2.13;;;16.50;67.60;;;;;;5047855;28;44036;-69
2021/12/09 02:33:10;;;;;;;2.10;2.00;;;16.50;67.90;;;;;;5048317;28;43976;-71
2021/12/09 02:35:38;;;;;;;1.90;1.90;;;16.40;67.80;;;;;;5029512;28;45981;-70
2021/12/09 02:38:08;;;;;;;2.30;2.30;;;16.40;68.00;;;;;;5047847;28;43992;-70
2021/12/09 02:40:36;;;;;;;2.40;2.30;;;16.40;68.00;;;;;;5047873;28;43906;-70
2021/12/09 02:43:07;;;;;;;1.67;1.67;;;16.40;68.00;;;;;;5048378;28;44283;-69
2021/12/09 02:45:35;;;;;;;1.90;1.90;;;16.40;68.10;;;;;;5041453;28;43972;-69
2021/12/09 02:48:03;;;;;;;1.77;1.77;;;16.30;68.00;;;;;;5041325;28;43879;-70
2021/12/09 02:50:31;;;;;;;2.10;2.10;;;16.30;68.30;;;;;;5041353;28;43984;-70
2021/12/09 02:52:59;;;;;;;2.00;2.00;;;16.40;68.10;;;;;;5041230;28;43996;-69
2021/12/09 02:55:28;;;;;;;1.90;1.90;;;16.50;67.90;;;;;;5040915;28;44635;-70
2021/12/09 02:57:56;;;;;;;2.30;2.30;;;16.70;67.50;;;;;;5040993;28;43998;-69
2021/12/09 03:00:24;;;;;;;2.10;2.00;;;16.80;66.90;;;;;;5047487;28;44000;-69
2021/12/09 03:02:54;;;;;;;2.10;2.00;;;16.80;66.60;;;;;;5047788;28;43897;-70
2021/12/09 03:05:22;;;;;;;1.90;1.90;;;16.80;66.60;;;;;;5046512;28;44081;-69
2021/12/09 03:07:50;;;;;;;1.90;1.90;;;16.80;66.80;;;;;;5028989;28;45259;-70
2021/12/09 03:10:19;;;;;;;1.80;1.80;;;16.70;66.90;;;;;;5047457;28;43913;-70
2021/12/09 03:12:49;;;;;;;2.00;2.00;;;16.60;67.10;;;;;;5047671;28;43941;-69
2021/12/09 03:15:17;;;;;;;1.93;1.90;;;16.60;67.40;;;;;;5046946;28;44807;-70
2021/12/09 03:17:47;;;;;;;2.00;2.00;;;16.50;67.50;;;;;;5046995;28;44487;-69
2021/12/09 03:20:16;;;;;;;1.90;1.90;;;16.50;67.60;;;;;;5047105;28;43920;-69
2021/12/09 03:22:44;;;;;;;1.97;1.97;;;16.50;67.90;;;;;;5047272;28;44074;-71
2021/12/09 03:25:13;;;;;;;1.80;1.80;;;16.40;67.80;;;;;;5046855;28;45133;-69
2021/12/09 03:27:41;;;;;;;1.90;1.90;;;16.40;68.00;;;;;;5046814;28;44101;-69
2021/12/09 03:30:12;;;;;;;1.93;1.93;;;16.40;68.10;;;;;;5046939;28;43984;-70
2021/12/09 03:32:40;;;;;;;1.90;1.90;;;16.40;68.10;;;;;;5047495;28;44065;-69
2021/12/09 03:35:08;;;;;;;1.97;1.97;;;16.50;67.80;;;;;;5046721;28;43923;-70
2021/12/09 03:37:39;;;;;;;2.00;2.00;;;16.60;67.60;;;;;;5046777;28;43921;-69
2021/12/09 03:40:09;;;;;;;1.83;1.83;;;16.60;67.40;;;;;;5047078;28;43818;-70
2021/12/09 03:42:37;;;;;;;1.90;1.90;;;16.50;67.50;;;;;;5047150;28;43509;-70
2021/12/09 03:45:05;;;;;;;1.80;1.80;;;16.50;67.50;;;;;;5028612;28;46576;-69
2021/12/09 03:47:35;;;;;;;2.10;2.10;;;16.50;67.70;;;;;;5047000;28;44008;-69
2021/12/09 03:50:04;;;;;;;1.90;1.90;;;16.40;67.70;;;;;;5047079;28;44084;-69
2021/12/09 03:52:32;;;;;;;2.07;2.07;;;16.40;67.80;;;;;;5047277;28;44154;-69
2021/12/09 03:55:00;;;;;;;1.87;1.87;;;16.40;67.90;;;;;;5046532;28;45149;-69
2021/12/09 03:57:27;;;;;;;1.80;1.80;;;16.40;68.00;;;;;;5046518;28;44086;-70
2021/12/09 03:59:55;;;;;;;2.40;2.30;;;16.40;68.00;;;;;;5047023;28;43940;-70
2021/12/09 04:02:24;;;;;;;2.10;2.10;;;16.40;68.00;;;;;;5047035;28;43519;-70
2021/12/09 04:04:53;;;;;;;2.00;2.00;;;16.40;68.00;;;;;;5026586;28;46308;-70
2021/12/09 04:07:21;;;;;;;1.83;1.83;;;16.40;68.10;;;;;;5028250;28;45285;-69
2021/12/09 04:09:49;;;;;;;2.03;2.03;;;16.40;68.20;;;;;;5046469;28;43433;-69
2021/12/09 04:12:19;;;;;;;2.30;2.20;;;16.40;68.00;;;;;;5046767;28;44098;-70
2021/12/09 04:14:47;;;;;;;1.77;1.70;;;16.50;67.80;;;;;;5045977;28;44048;-68
2021/12/09 04:17:15;;;;;;;1.90;1.90;;;16.70;67.40;;;;;;5046342;28;43878;-70
2021/12/09 04:19:47;;;;;;;1.90;1.90;;;16.80;66.90;;;;;;5046410;28;43960;-69
2021/12/09 04:22:18;;;;;;;2.40;2.30;;;16.90;66.60;;;;;;5028747;28;44066;-69
2021/12/09 04:24:46;;;;;;;2.23;2.20;;;16.90;66.50;;;;;;5046308;28;43694;-69
2021/12/09 04:27:14;;;;;;;1.70;1.70;;;16.80;66.50;;;;;;5046197;28;43939;-69
2021/12/09 04:29:42;;;;;;;2.07;2.07;;;16.80;66.70;;;;;;5046170;28;43996;-70
2021/12/09 04:32:10;;;;;;;2.00;2.00;;;16.70;66.90;;;;;;5028483;28;43955;-69
2021/12/09 04:34:38;;;;;;;2.30;2.20;;;16.60;67.00;;;;;;5045919;28;43966;-69
2021/12/09 04:37:06;;;;;;;2.23;2.20;;;16.60;67.40;;;;;;5045791;28;44033;-69
2021/12/09 04:39:35;;;;;;;2.13;2.03;;;16.60;67.50;;;;;;5046388;28;43933;-69
2021/12/09 04:42:04;;;;;;;2.07;2.07;;;16.50;67.50;;;;;;5046715;28;43941;-69
2021/12/09 04:44:32;;;;;;;2.33;2.27;;;16.50;67.70;;;;;;5046155;28;44033;-70
2021/12/09 04:47:01;;;;;;;2.07;2.00;;;16.50;67.70;;;;;;5045663;28;44048;-70
2021/12/09 04:49:29;;;;;;;2.40;2.20;;;16.40;67.70;;;;;;5045992;28;43992;-69
2021/12/09 04:52:00;;;;;;;2.57;2.47;;;16.50;68.00;;;;;;5027902;28;43950;-70
2021/12/09 04:54:27;;;;;;;2.50;2.40;;;16.50;67.60;;;;;;5045536;28;43947;-70
2021/12/09 04:56:57;;;;;;;3.80;3.10;;;16.60;67.40;;;;;;5028136;28;43993;-69
2021/12/09 04:59:25;;;;;;;2.67;2.57;;;16.60;67.10;;;;;;5046099;28;43914;-70
2021/12/09 05:01:52;;;;;;;3.10;2.90;;;16.60;67.10;;;;;;5046120;28;43904;-69
2021/12/09 05:04:21;;;;;;;2.97;2.77;;;16.60;67.30;;;;;;5045118;28;43759;-70
2021/12/09 05:06:49;;;;;;;3.30;3.00;;;16.50;67.40;;;;;;5045644;28;43947;-70
2021/12/09 05:09:18;;;;;;;3.23;3.03;;;16.50;67.50;;;;;;5045769;28;43979;-70
2021/12/09 05:11:49;;;;;;;3.10;2.87;;;16.40;67.60;;;;;;5027839;28;43942;-70
2021/12/09 05:14:19;;;;;;;3.67;3.13;;;16.40;67.70;;;;;;5027653;28;46016;-69
2021/12/09 05:16:48;;;;;;;3.10;2.90;;;16.40;67.80;;;;;;5046997;28;43953;-70
2021/12/09 05:19:16;;;;;;;3.87;3.50;;;16.40;67.90;;;;;;5049141;28;43964;-70
2021/12/09 05:21:44;;;;;;;3.23;3.03;;;16.40;67.90;;;;;;5049377;28;43566;-70
2021/12/09 05:24:12;;;;;;;3.40;3.20;;;16.30;67.90;;;;;;5048771;28;44017;-70
2021/12/09 05:26:45;;;;;;;4.47;3.30;;;16.40;68.10;;;;;;5048706;28;44051;-70
2021/12/09 05:29:13;;;;;;;4.53;3.60;;;16.30;68.10;;;;;;5049147;28;44040;-70
2021/12/09 05:34:28;;;;;;;3.73;3.20;;;16.50;67.90;;;;;;5048922;28;44958;-70
2021/12/09 05:36:56;;;;;;;4.67;3.33;;;16.60;67.40;;;;;;5049008;28;43893;-69
2021/12/09 05:39:24;;;;;;;5.67;3.70;;;16.80;66.90;;;;;;5030657;28;43909;-70
2021/12/09 05:41:53;;;;;;;7.17;3.77;;;16.80;66.60;;;;;;5049192;28;43798;-70
2021/12/09 05:44:21;;;;;;;3.20;3.00;;;16.80;66.50;;;;;;5048583;28;44011;-70
2021/12/09 05:46:50;;;;;;;4.03;3.23;;;16.70;66.50;;;;;;5030301;28;44520;-69
2021/12/09 05:49:19;;;;;;;3.37;3.17;;;16.70;66.80;;;;;;5048756;28;43945;-70
2021/12/09 05:51:47;;;;;;;3.60;3.30;;;16.60;67.00;;;;;;5049033;28;44187;-70
2021/12/09 05:54:14;;;;;;;4.33;3.30;;;16.60;67.20;;;;;;5030131;28;45736;-69
2021/12/09 05:56:42;;;;;;;3.50;3.30;;;16.50;67.30;;;;;;5048340;28;44020;-70
2021/12/09 05:59:10;;;;;;;3.67;3.27;;;16.50;67.50;;;;;;5048626;28;43461;-70
2021/12/09 06:01:39;;;;;;;3.50;3.20;;;16.40;67.60;;;;;;5048889;28;43998;-70
2021/12/09 06:04:08;;;;;;;3.73;3.37;;;16.40;67.80;;;;;;5047728;28;43951;-70
2021/12/09 06:06:36;;;;;;;3.60;3.40;;;16.40;67.90;;;;;;5030196;28;45285;-69
2021/12/09 06:09:05;;;;;;;4.17;3.77;;;16.30;67.90;;;;;;5030568;28;43965;-70
2021/12/09 06:11:34;;;;;;;3.30;3.10;;;16.30;68.10;;;;;;5049042;28;44098;-70
2021/12/09 06:14:02;;;;;;;3.37;2.97;;;16.40;68.10;;;;;;5030004;28;46035;-70
2021/12/09 06:16:30;;;;;;;3.73;3.33;;;16.50;67.70;;;;;;5047741;28;43958;-70
2021/12/09 06:18:58;;;;;;;3.73;3.43;;;16.60;67.20;;;;;;5048415;28;43949;-70
2021/12/09 06:21:28;;;;;;;3.40;3.20;;;16.60;67.00;;;;;;5049005;28;44276;-69
2021/12/09 06:23:56;;;;;;;4.20;3.07;;;16.60;67.00;;;;;;5047913;28;43930;-69
2021/12/09 06:26:24;;;;;;;3.30;3.10;;;16.60;67.10;;;;;;5047865;28;43906;-70
2021/12/09 06:28:52;;;;;;;3.10;2.90;;;16.50;67.20;;;;;;5029298;28;43862;-69
2021/12/09 06:31:20;;;;;;;3.13;2.93;;;16.50;67.40;;;;;;5048523;28;43467;-69
2021/12/09 06:33:48;;;;;;;3.10;2.90;;;16.50;67.50;;;;;;5029521;28;46883;-69
2021/12/09 06:36:16;;;;;;;2.90;2.70;;;16.40;67.60;;;;;;5047411;28;44001;-70
2021/12/09 06:38:45;;;;;;;2.90;2.70;;;16.40;67.70;;;;;;5029641;28;44048;-69
2021/12/09 06:41:13;;;;;;;3.33;3.10;;;16.40;67.80;;;;;;5029861;28;44273;-70
2021/12/09 06:43:41;;;;;;;3.83;3.53;;;16.30;67.80;;;;;;5047749;28;43960;-69
2021/12/09 06:46:10;;;;;;;2.70;2.60;;;16.40;68.00;;;;;;5047511;28;43962;-70
2021/12/09 06:48:39;;;;;;;3.70;3.40;;;16.30;67.90;;;;;;5047603;28;43826;-69
2021/12/09 06:51:08;;;;;;;3.27;3.00;;;16.40;68.10;;;;;;5048165;28;44278;-70
2021/12/09 06:53:36;;;;;;;3.13;2.97;;;16.40;68.10;;;;;;5047396;28;44012;-69
2021/12/09 06:56:06;;;;;;;3.23;2.93;;;16.50;67.80;;;;;;5047467;28;43436;-70
2021/12/09 06:58:34;;;;;;;3.30;3.00;;;16.60;67.40;;;;;;5047751;28;43960;-70
2021/12/09 07:01:05;;;;;;;3.07;2.87;;;16.80;66.90;;;;;;5048022;28;44111;-71
2021/12/09 07:03:34;;;;;;;2.93;2.83;;;16.80;66.60;;;;;;5047501;28;43986;-70
2021/12/09 07:06:06;;;;;;;2.80;2.70;;;16.80;66.60;;;;;;5025319;28;44651;-70
2021/12/09 07:08:36;;;;;;;2.50;2.40;;;16.70;66.60;;;;;;5027704;28;43996;-70
2021/12/09 07:11:05;;;;;;;3.07;2.87;;;16.70;66.90;;;;;;5028064;28;43897;-70
2021/12/09 07:13:33;;;;;;;3.20;3.00;;;16.60;67.00;;;;;;5027145;28;44030;-70
2021/12/09 07:16:01;;;;;;;2.60;2.50;;;16.60;67.30;;;;;;5027183;28;44075;-70
2021/12/09 07:18:30;;;;;;;2.80;2.60;;;16.50;67.30;;;;;;5027180;28;44005;-70
2021/12/09 07:20:58;;;;;;;2.97;2.77;;;16.50;67.50;;;;;;5027375;28;43567;-70
2021/12/09 07:23:26;;;;;;;3.27;2.93;;;16.50;67.60;;;;;;5027099;28;44043;-70
2021/12/09 07:25:54;;;;;;;3.03;2.83;;;16.40;67.60;;;;;;5026737;28;43428;-70
2021/12/09 07:28:24;;;;;;;3.27;3.07;;;16.40;67.70;;;;;;5027070;28;43948;-70
2021/12/09 07:30:52;;;;;;;2.70;2.50;;;16.40;67.80;;;;;;5027415;28;44034;-70
2021/12/09 07:33:20;;;;;;;3.40;3.20;;;16.40;68.00;;;;;;5026853;28;44020;-70
2021/12/09 07:35:48;;;;;;;2.73;2.60;;;16.50;67.90;;;;;;5026774;28;43965;-70
2021/12/09 07:38:21;;;;;;;3.13;2.93;;;16.60;67.50;;;;;;5027250;28;44444;-70
2021/12/09 07:40:49;;;;;;;2.93;2.73;;;16.60;67.20;;;;;;5026318;28;44202;-70
2021/12/09 07:43:17;;;;;;;2.90;2.80;;;16.60;67.10;;;;;;5026698;28;44024;-70
2021/12/09 07:45:47;;;;;;;2.90;2.70;;;16.60;67.30;;;;;;5026717;28;43829;-70
2021/12/09 07:48:15;;;;;;;2.93;2.83;;;16.50;67.40;;;;;;5025441;28;43440;-71
2021/12/09 07:50:42;;;;;;;2.73;2.63;;;16.50;67.50;;;;;;5027120;28;44251;-71
2021/12/09 07:53:10;;;;;;;3.07;2.87;;;16.40;67.50;;;;;;5026352;28;44068;-70
2021/12/09 07:55:38;;;;;;;2.70;2.60;;;16.40;67.60;;;;;;5026402;28;43424;-69
2021/12/09 07:58:06;;;;;;;2.77;2.57;;;16.40;67.80;;;;;;5026150;28;43937;-70
2021/12/09 08:00:34;;;;;;;3.00;2.80;;;16.40;67.80;;;;;;5026868;28;43964;-70
2021/12/09 08:03:06;;;;;;;2.67;2.57;;;16.40;67.90;;;;;;5026340;28;45069;-70
2021/12/09 08:05:35;;;;;;;2.60;2.40;;;16.30;67.80;;;;;;5038727;28;44156;-70
2021/12/09 08:08:03;;;;;;;2.80;2.60;;;16.30;67.90;;;;;;5046269;28;43996;-70
2021/12/09 08:10:31;;;;;;;2.43;2.30;;;16.30;67.90;;;;;;5046905;28;43984;-70
2021/12/09 08:13:00;;;;;;;2.80;2.60;;;16.30;68.10;;;;;;5045972;28;43903;-70
2021/12/09 08:15:29;;;;;;;2.97;2.73;;;16.40;68.00;;;;;;5045899;28;43984;-70
2021/12/09 08:18:02;;;;;;;2.60;2.50;;;16.50;67.60;;;;;;5045913;28;43990;-70
2021/12/09 08:20:32;;;;;;;2.63;2.47;;;16.70;67.30;;;;;;5046654;28;43925;-70
2021/12/09 08:23:00;;;;;;;2.70;2.60;;;16.80;66.80;;;;;;5046097;28;44865;-70
2021/12/09 08:25:28;;;;;;;2.40;2.30;;;16.80;66.40;;;;;;5045768;28;43977;-70
2021/12/09 08:27:56;;;;;;;2.60;2.50;;;16.80;66.40;;;;;;5045820;28;43988;-71
2021/12/09 08:30:25;;;;;;;2.90;2.70;;;16.70;66.50;;;;;;5046362;28;43957;-70
2021/12/09 08:33:13;;;;;;;3.00;2.80;;;16.70;66.80;;;;;;5045980;28;43952;-70
2021/12/09 08:35:42;;;;;;;2.60;2.50;;;16.60;67.00;;;;;;5021407;28;44686;-70
2021/12/09 08:38:10;;;;;;;2.20;2.10;;;16.60;67.30;;;;;;5008087;28;43902;-70
2021/12/09 08:40:39;;;;;;;3.07;2.87;;;16.50;67.40;;;;;;5046324;28;44255;-70
2021/12/09 08:43:07;;;;;;;2.30;2.20;;;16.50;67.50;;;;;;5045715;28;44007;-70
2021/12/09 08:45:35;;;;;;;2.30;2.20;;;16.40;67.50;;;;;;5045838;28;44125;-71
2021/12/09 08:48:03;;;;;;;2.60;2.50;;;16.40;67.70;;;;;;5045835;28;44002;-70
2021/12/09 08:50:33;;;;;;;2.43;2.30;;;16.40;67.80;;;;;;5046197;28;44067;-70
2021/12/09 08:53:03;;;;;;;2.60;2.50;;;16.40;67.90;;;;;;5048728;28;44015;-70
2021/12/09 08:55:32;;;;;;;2.67;2.57;;;16.40;67.80;;;;;;5049379;28;43934;-69
2021/12/09 08:58:01;;;;;;;2.20;2.10;;;16.50;67.40;;;;;;5049175;28;43863;-69
2021/12/09 09:00:31;;;;;;;2.40;2.30;;;16.60;67.20;;;;;;5049691;28;43836;-69
2021/12/09 09:03:00;;;;;;;2.50;2.40;;;16.60;67.10;;;;;;5049219;28;45063;-70
2021/12/09 09:05:28;;;;;;;2.90;2.70;;;16.60;67.30;;;;;;5048261;28;43659;-70
2021/12/09 09:07:56;;;;;;;2.40;2.30;;;16.50;67.30;;;;;;5048690;28;43967;-69
2021/12/09 09:10:26;;;;;;;2.67;2.57;;;16.50;67.50;;;;;;5049356;28;44028;-70
2021/12/09 09:12:54;;;;;;;2.57;2.47;;;16.40;67.50;;;;;;5049021;28;43955;-70
2021/12/09 09:15:23;;;;;;;2.43;2.33;;;16.40;67.60;;;;;;5048614;28;43722;-70
2021/12/09 09:17:51;;;;;;;2.30;2.20;;;16.40;67.70;;;;;;5048596;28;44016;-70
2021/12/09 09:20:24;;;;;;;2.90;2.73;;;16.40;67.70;;;;;;5049268;28;43896;-70
2021/12/09 09:22:52;;;;;;;2.43;2.33;;;16.30;67.70;;;;;;5048827;28;43845;-70
2021/12/09 09:25:24;;;;;;;2.43;2.33;;;16.30;67.80;;;;;;5030513;28;45151;-70
2021/12/09 09:27:53;;;;;;;2.03;2.03;;;16.30;67.80;;;;;;5048663;28;43984;-70
2021/12/09 09:30:21;;;;;;;2.40;2.30;;;16.40;68.00;;;;;;5048916;28;43992;-70
2021/12/09 09:32:50;;;;;;;2.37;2.30;;;16.30;68.00;;;;;;5048518;28;44049;-69
2021/12/09 09:35:18;;;;;;;2.40;2.30;;;16.40;67.90;;;;;;5030317;28;45238;-70
2021/12/09 09:37:46;;;;;;;2.43;2.33;;;16.50;67.70;;;;;;5048390;28;43953;-70
2021/12/09 09:40:27;;;;;;;2.37;2.27;;;16.70;67.20;;;;;;5049330;28;43904;-70
2021/12/09 09:43:03;;;;;;;2.43;2.33;;;16.70;66.70;;;;;;5048561;28;43979;-71
2021/12/09 09:45:32;;;;;;;2.63;2.43;;;16.70;66.50;;;;;;5030799;28;44942;-69
2021/12/09 09:48:00;;;;;;;2.50;2.40;;;16.70;66.70;;;;;;5041780;28;43961;-70
2021/12/09 09:50:29;;;;;;;2.23;2.13;;;16.70;66.90;;;;;;5042454;28;43376;-70
2021/12/09 09:52:58;;;;;;;2.80;2.60;;;16.60;67.10;;;;;;5010653;28;46469;-70
2021/12/09 09:55:26;;;;;;;2.50;2.40;;;16.50;67.20;;;;;;5048265;28;43893;-69
2021/12/09 09:58:00;;;;;;;2.27;2.17;;;16.50;67.40;;;;;;5048160;28;43450;-70
2021/12/09 10:00:28;;;;;;;2.40;2.30;;;16.40;67.50;;;;;;5030458;28;43965;-70
2021/12/09 10:02:56;;;;;;;2.30;2.20;;;16.40;67.60;;;;;;5046953;28;43959;-71
2021/12/09 10:05:36;;;;;;;2.10;2.10;;;16.40;67.70;;;;;;5047583;28;43965;-70
2021/12/09 10:08:04;;;;;;;2.40;2.30;;;16.30;67.70;;;;;;5048201;28;43834;-70
2021/12/09 10:10:32;;;;;;;2.20;2.10;;;16.30;67.90;;;;;;5048684;28;43603;-70
2021/12/09 10:13:03;;;;;;;2.10;2.00;;;16.40;68.10;;;;;;5047800;28;43871;-71
2021/12/09 10:15:46;;;;;;;2.47;2.37;;;16.40;68.10;;;;;;5048151;28;44028;-70
2021/12/09 10:18:17;;;;;;;2.40;2.30;;;16.50;67.80;;;;;;5047664;28;43396;-71
2021/12/09 10:20:53;;;;;;;2.63;2.53;;;16.60;67.40;;;;;;5048361;28;44035;-70
2021/12/09 10:23:26;;;;;;;2.27;2.17;;;16.70;67.00;;;;;;5041634;28;43957;-70
2021/12/09 10:26:13;;;;;;;2.30;2.20;;;16.70;66.70;;;;;;5042357;28;44374;-70
2021/12/09 10:28:46;;;;;;;2.40;2.30;;;16.70;66.80;;;;;;5047503;28;43860;-70
2021/12/09 10:31:15;;;;;;;2.40;2.30;;;16.60;67.00;;;;;;5029847;28;43970;-70
2021/12/09 10:34:07;;;;;;;2.30;2.20;;;16.60;67.10;;;;;;5047432;28;43900;-70
2021/12/09 10:36:46;;;;;;;2.20;2.20;;;16.60;67.40;;;;;;5047769;28;43898;-71
2021/12/09 10:39:22;;;;;;;2.47;2.37;;;16.50;67.40;;;;;;5029326;28;43903;-70
2021/12/09 10:41:50;;;;;;;2.10;2.00;;;16.40;67.50;;;;;;5048098;28;43925;-70
2021/12/09 10:44:30;;;;;;;2.30;2.20;;;16.40;67.60;;;;;;5047338;28;44009;-70
2021/12/09 10:47:07;;;;;;;2.20;2.10;;;16.40;67.70;;;;;;5047840;28;43965;-70
2021/12/09 10:49:41;;;;;;;2.20;2.10;;;16.40;67.80;;;;;;5048008;28;43747;-70
2021/12/09 10:52:21;;;;;;;2.27;2.20;;;16.30;67.70;;;;;;5029508;28;43969;-70
2021/12/09 10:54:49;;;;;;;1.87;1.87;;;16.30;68.00;;;;;;5047170;28;44024;-70
2021/12/09 10:57:26;;;;;;;2.17;2.17;;;16.40;67.80;;;;;;5047212;28;44020;-70
2021/12/09 10:59:56;;;;;;;2.00;1.90;;;16.50;67.50;;;;;;5047510;28;44028;-70
2021/12/09 11:02:25;;;;;;;2.37;2.27;;;16.60;67.30;;;;;;5047446;28;43964;-70
2021/12/09 11:05:00;;;;;;;2.53;2.43;;;16.50;67.20;;;;;;5046376;28;44759;-70
2021/12/09 11:07:31;;;;;;;2.00;2.00;;;16.50;67.40;;;;;;5047024;28;43406;-69
2021/12/09 11:10:19;;;;;;;2.00;2.00;;;16.50;67.50;;;;;;5028888;28;44047;-70
2021/12/09 11:12:56;;;;;;;2.17;2.10;;;16.40;67.60;;;;;;5047592;28;43841;-70
2021/12/09 11:15:47;;;;;;;1.97;1.97;;;16.40;67.70;;;;;;5046882;28;43934;-70
2021/12/09 11:18:30;;;;;;;2.30;2.20;;;16.40;67.90;;;;;;5029120;28;45197;-71
2021/12/09 11:20:58;;;;;;;1.93;1.90;;;16.30;67.90;;;;;;5041419;28;43916;-70
2021/12/09 11:23:27;;;;;;;2.37;2.17;;;16.30;68.00;;;;;;5029094;28;43459;-70
2021/12/09 11:25:58;;;;;;;1.80;1.80;;;16.30;68.00;;;;;;5046647;28;43945;-69
2021/12/09 11:28:27;;;;;;;2.10;2.00;;;16.30;68.00;;;;;;5046694;28;44108;-69
2021/12/09 11:31:05;;;;;;;2.27;2.20;;;16.30;68.00;;;;;;5046699;28;43968;-69
2021/12/09 11:33:38;;;;;;;2.30;2.20;;;16.30;68.10;;;;;;5047643;28;43999;-70
2021/12/09 11:36:07;;;;;;;2.30;2.20;;;16.30;68.10;;;;;;5028680;28;46194;-71
2021/12/09 11:38:52;;;;;;;1.80;1.80;;;16.40;67.90;;;;;;5046499;28;44080;-69
2021/12/09 11:41:30;;;;;;;2.00;2.00;;;16.60;67.50;;;;;;5046849;28;43991;-70
2021/12/09 11:44:06;;;;;;;1.70;1.70;;;16.70;66.80;;;;;;5047324;28;43429;-69
2021/12/09 11:46:36;;;;;;;2.00;1.90;;;16.70;66.60;;;;;;5046601;28;43768;-70
2021/12/09 11:49:04;;;;;;;1.97;1.97;;;16.70;67.40;;;;;;5046245;28;44036;-70
2021/12/09 11:51:32;;;;;;;2.00;1.90;;;16.60;66.90;;;;;;5046713;28;43900;-70
2021/12/09 11:54:00;;;;;;;1.80;1.80;;;16.60;67.00;;;;;;5028521;28;44001;-70
2021/12/09 11:56:36;;;;;;;2.03;1.93;;;16.60;67.20;;;;;;5046278;28;44663;-70
2021/12/09 12:13:38;;;;;;;1.70;1.70;;;16.30;67.90;;;;;;5027378;28;43982;-70
2021/12/09 12:16:58;;;;;;;1.97;1.93;;;16.30;68.10;;;;;;5046019;28;44038;-70
2021/12/09 12:19:56;;;;;;;2.03;2.00;;;16.40;67.80;;;;;;5045527;28;43949;-71
2021/12/09 12:26:02;;;;;;;1.67;1.67;;;16.50;67.40;;;;;;5033642;28;43941;-70
2021/12/09 12:28:41;;;;;;;2.07;2.00;;;16.50;67.60;;;;;;5046309;28;44004;-69
2021/12/09 12:31:37;;;;;;;1.90;1.80;;;16.40;67.70;;;;;;5045886;28;44132;-70
2021/12/09 12:37:18;;;;;;;2.13;1.93;;;16.30;68.60;;;;;;5034499;28;43607;-70
2021/12/09 12:39:57;;;;;;;1.93;1.83;;;16.30;68.00;;;;;;5046431;28;43914;-69
2021/12/09 12:42:39;;;;;;;1.67;1.67;;;16.30;68.00;;;;;;5041088;28;45235;-70
2021/12/09 12:45:18;;;;;;;1.93;1.83;;;16.30;68.10;;;;;;5027719;28;44905;-69
2021/12/09 12:47:54;;;;;;;1.70;1.70;;;16.30;68.10;;;;;;5045821;28;44055;-70
2021/12/09 12:50:22;;;;;;;1.60;1.60;;;16.30;68.20;;;;;;5046326;28;43933;-70
2021/12/09 12:52:54;;;;;;;1.50;1.50;;;16.30;68.20;;;;;;5045494;28;44069;-69
2021/12/09 12:55:26;;;;;;;1.83;1.77;;;16.30;68.30;;;;;;5039285;28;43983;-69
2021/12/09 12:57:54;;;;;;;1.70;1.70;;;16.40;68.20;;;;;;5039685;28;43874;-69
2021/12/09 13:00:25;;;;;;;1.70;1.70;;;16.50;67.80;;;;;;5045875;28;44066;-69
2021/12/09 13:03:17;;;;;;;1.60;1.60;;;16.60;67.30;;;;;;5027311;28;45841;-70
2021/12/09 13:06:04;;;;;;;1.40;1.40;;;16.70;66.80;;;;;;5045035;28;43896;-70
2021/12/09 13:08:49;;;;;;;1.70;1.70;;;16.80;66.50;;;;;;5027704;28;44044;-70
2021/12/09 13:11:23;;;;;;;1.50;1.50;;;16.70;66.50;;;;;;5027880;28;43984;-70
2021/12/09 13:14:03;;;;;;;1.67;1.67;;;16.70;66.80;;;;;;5045417;28;44360;-70
2021/12/09 13:16:40;;;;;;;1.70;1.70;;;16.60;67.00;;;;;;5045616;28;43905;-70
2021/12/09 13:19:31;;;;;;;1.60;1.60;;;16.50;67.10;;;;;;5045473;28;44029;-71
2021/12/09 13:22:00;;;;;;;1.63;1.63;;;16.50;67.40;;;;;;5045848;28;44212;-69
2021/12/09 13:24:52;;;;;;;1.50;1.50;;;16.40;67.50;;;;;;5027035;28;44291;-70
2021/12/09 13:27:32;;;;;;;1.80;1.70;;;16.40;67.70;;;;;;5045117;28;44130;-70
2021/12/09 13:30:19;;;;;;;1.47;1.47;;;16.40;67.80;;;;;;5027051;28;43958;-70